Ranelagh, Argentina
Current Conditions -  °F | °C
As of 10:00 AM on Friday 19 Dec 2014 (Local Time) from SAEZ Reporting Station
Clear Clear  
Wind Chill: 86°   Ceiling: Unl
Heat Index: 87°   Visibility: 6mi
Dew Point: 64°   Wind: 18mph
Humidity: 48%   Direction: 320°NW
Pressure: 29.68"   Gusts: 30mph
Location:  34.8°S, 58.2°W
Report Text: SAEZ 191300Z 32016G26KT 280V350 CAVOK 30/18 Q1005
Loading
Personal Weather Stations






























Interactive Weather Map New forecast layout! Learn more

10-Day Weather Forecast

Advertisements
Track Severe Weather on mobile